Time;durP1;ratioP1;P1;durP2;ratioP2;P2;SDS_P1;SDS_P2;PMS_P1;PMS_P2;Temp;Humidity;BMP_temperature;BMP_pressure;BME280_temperature;BME280_humidity;BME280_pressure;Samples;Min_cycle;Max_cycle;Signal;HPM_P1;HPM_P2
2021/06/15 00:02:15;;;;;;;8.35;5.32;;;20.00;68.40;;;;;;4362047;32;20031;-84
2021/06/15 00:04:40;;;;;;;9.32;5.15;;;19.90;68.40;;;;;;4374698;32;20031;-84
2021/06/15 00:07:06;;;;;;;10.27;6.15;;;19.90;68.40;;;;;;4378681;32;20049;-83
2021/06/15 00:09:32;;;;;;;10.57;6.22;;;19.90;68.30;;;;;;4362591;32;20047;-83
2021/06/15 00:11:58;;;;;;;10.55;5.90;;;19.90;68.30;;;;;;4361369;32;20027;-83
2021/06/15 00:14:23;;;;;;;10.98;6.40;;;19.90;68.20;;;;;;4375077;32;20050;-83
2021/06/15 00:16:49;;;;;;;7.65;5.35;;;19.90;68.20;;;;;;4361659;32;20107;-83
2021/06/15 00:19:15;;;;;;;8.75;6.10;;;19.80;68.30;;;;;;4362581;32;20050;-83
2021/06/15 00:21:41;;;;;;;12.23;5.68;;;19.80;68.20;;;;;;4374732;32;20028;-83
2021/06/15 00:24:07;;;;;;;11.77;5.70;;;19.80;68.20;;;;;;4363344;32;20102;-83
2021/06/15 00:26:32;;;;;;;9.70;5.53;;;19.70;68.10;;;;;;4373868;32;20057;-83
2021/06/15 00:29:01;;;;;;;9.63;5.75;;;19.70;68.00;;;;;;4362326;32;20031;-84
2021/06/15 00:31:27;;;;;;;9.65;5.85;;;19.70;68.00;;;;;;4362840;32;20069;-83
2021/06/15 00:33:53;;;;;;;11.75;5.68;;;19.60;68.00;;;;;;4361821;32;20358;-83
2021/06/15 00:36:19;;;;;;;8.90;5.62;;;19.60;68.00;;;;;;4390306;32;20433;-83
2021/06/15 00:38:47;;;;;;;9.57;5.47;;;19.60;67.90;;;;;;4366067;32;20019;-82
2021/06/15 00:41:13;;;;;;;10.88;6.55;;;19.60;67.90;;;;;;4364375;32;20074;-83
2021/06/15 00:43:39;;;;;;;9.68;5.45;;;19.50;68.00;;;;;;4365706;32;20396;-83
2021/06/15 00:46:05;;;;;;;9.82;6.10;;;19.50;68.00;;;;;;4376588;32;20062;-82
2021/06/15 00:48:33;;;;;;;12.37;5.95;;;19.50;68.00;;;;;;4378287;32;20047;-83
2021/06/15 00:50:59;;;;;;;9.38;5.40;;;19.40;68.00;;;;;;4382361;32;20077;-82
2021/06/15 00:53:25;;;;;;;8.65;5.70;;;19.40;68.10;;;;;;4378884;32;20030;-83
2021/06/15 00:55:52;;;;;;;9.90;5.80;;;19.40;68.10;;;;;;4378053;32;20046;-82
2021/06/15 00:58:18;;;;;;;9.13;5.75;;;19.40;68.00;;;;;;4365335;32;20054;-82
2021/06/15 01:00:43;;;;;;;8.32;5.93;;;19.30;68.10;;;;;;4351653;32;20078;-82
2021/06/15 01:03:09;;;;;;;9.18;5.72;;;19.30;68.20;;;;;;4365644;32;20399;-83
2021/06/15 01:05:37;;;;;;;9.68;6.00;;;19.30;68.20;;;;;;4363839;32;20101;-82
2021/06/15 01:08:13;;;;;;;12.95;5.70;;;19.20;68.20;;;;;;4378978;32;20316;-82
2021/06/15 01:10:54;;;;;;;13.73;5.80;;;19.20;68.20;;;;;;4377048;32;20050;-82
2021/06/15 01:13:43;;;;;;;9.88;5.82;;;19.20;68.30;;;;;;4379022;32;20050;-82
2021/06/15 01:16:15;;;;;;;12.37;5.62;;;19.10;68.30;;;;;;4378212;32;20050;-82
2021/06/15 01:19:29;;;;;;;8.00;5.18;;;19.10;68.40;;;;;;4377831;32;20028;-82
2021/06/15 01:22:07;;;;;;;10.43;5.82;;;19.10;68.50;;;;;;4316072;33;20429;-82
2021/06/15 01:24:39;;;;;;;8.13;5.45;;;19.10;68.60;;;;;;4291763;33;20436;-82
2021/06/15 01:27:23;;;;;;;7.85;5.50;;;19.00;68.60;;;;;;4292184;33;20033;-82
2021/06/15 01:29:49;;;;;;;12.30;5.93;;;19.00;68.70;;;;;;4305370;33;20087;-81
2021/06/15 01:32:26;;;;;;;9.95;6.55;;;18.90;68.80;;;;;;4304524;33;20427;-82
2021/06/15 01:34:51;;;;;;;11.32;6.30;;;18.90;68.90;;;;;;4293347;33;20120;-82
2021/06/15 01:37:32;;;;;;;14.43;6.78;;;18.80;69.00;;;;;;4291685;33;20103;-82
2021/06/15 01:40:08;;;;;;;15.02;6.25;;;18.80;69.10;;;;;;4292700;33;20032;-82
2021/06/15 01:42:39;;;;;;;11.05;6.05;;;18.80;69.00;;;;;;4292963;33;20078;-82
2021/06/15 01:45:11;;;;;;;10.75;5.82;;;18.70;69.00;;;;;;4292334;33;20075;-81
2021/06/15 01:47:37;;;;;;;11.88;6.93;;;18.70;69.10;;;;;;4291482;33;20135;-82
2021/06/15 01:50:05;;;;;;;10.27;6.12;;;18.60;69.20;;;;;;4292160;33;20435;-81
2021/06/15 01:52:35;;;;;;;11.93;6.07;;;18.60;69.20;;;;;;4303632;33;20458;-82
2021/06/15 01:55:05;;;;;;;11.18;6.00;;;18.60;69.20;;;;;;4292230;33;20025;-82
2021/06/15 01:57:31;;;;;;;8.77;5.87;;;18.60;69.30;;;;;;4322475;32;20035;-82
2021/06/15 01:59:58;;;;;;;9.63;6.35;;;18.60;69.30;;;;;;4362964;32;20031;-82
2021/06/15 02:02:24;;;;;;;9.88;6.12;;;18.50;69.30;;;;;;4363652;32;20042;-82
2021/06/15 02:04:51;;;;;;;9.38;6.37;;;18.50;69.30;;;;;;4364558;32;20379;-82
2021/06/15 02:07:29;;;;;;;9.80;6.40;;;18.40;69.30;;;;;;4374124;32;20031;-82
2021/06/15 02:09:56;;;;;;;11.65;7.30;;;18.50;69.20;;;;;;4390414;32;20023;-82
2021/06/15 02:12:26;;;;;;;7.85;5.82;;;18.40;69.20;;;;;;4390541;32;20027;-82
2021/06/15 02:14:52;;;;;;;9.40;7.10;;;18.40;69.20;;;;;;4390541;32;20019;-82
2021/06/15 02:17:18;;;;;;;9.35;5.87;;;18.40;69.20;;;;;;4390360;32;20058;-82
2021/06/15 02:19:44;;;;;;;10.02;6.53;;;18.40;69.30;;;;;;4390790;32;20132;-82
2021/06/15 02:22:15;;;;;;;10.45;7.00;;;18.30;69.30;;;;;;4391855;32;20176;-82
2021/06/15 02:24:42;;;;;;;10.15;7.25;;;18.30;69.30;;;;;;4390254;32;20027;-82
2021/06/15 02:27:09;;;;;;;10.88;6.70;;;18.30;69.30;;;;;;4391678;32;20057;-82
2021/06/15 02:29:35;;;;;;;10.63;7.50;;;18.20;69.30;;;;;;4391771;32;20141;-82
2021/06/15 02:32:03;;;;;;;13.95;6.68;;;18.20;69.40;;;;;;4391832;32;20394;-83
2021/06/15 02:34:29;;;;;;;10.95;7.00;;;18.20;69.50;;;;;;4390200;32;20088;-83
2021/06/15 02:36:55;;;;;;;9.93;6.37;;;18.10;69.50;;;;;;4390009;32;20378;-82
2021/06/15 02:39:22;;;;;;;9.68;7.10;;;18.10;69.50;;;;;;4391717;32;20362;-82
2021/06/15 02:41:48;;;;;;;10.70;7.35;;;18.10;69.50;;;;;;4390166;32;20083;-82
2021/06/15 02:44:18;;;;;;;7.65;5.78;;;18.00;69.50;;;;;;4390540;32;20039;-83
2021/06/15 02:46:46;;;;;;;15.73;7.82;;;17.90;69.50;;;;;;4389880;32;20065;-82
2021/06/15 02:49:17;;;;;;;12.00;7.72;;;18.00;69.60;;;;;;4391536;32;20073;-83
2021/06/15 02:51:48;;;;;;;13.48;8.07;;;17.90;69.60;;;;;;4388592;32;20125;-82
2021/06/15 02:54:25;;;;;;;11.02;7.18;;;17.90;69.60;;;;;;4367526;32;20058;-83
2021/06/15 02:56:52;;;;;;;15.65;8.38;;;17.90;69.70;;;;;;4377421;32;20505;-83
2021/06/15 02:59:21;;;;;;;11.30;7.30;;;17.90;69.80;;;;;;4377450;32;20031;-83
2021/06/15 03:01:47;;;;;;;13.10;9.07;;;17.80;70.00;;;;;;4377092;32;20089;-84
2021/06/15 03:04:14;;;;;;;17.02;9.63;;;17.80;70.10;;;;;;4377119;32;20023;-83
2021/06/15 03:06:39;;;;;;;15.85;9.13;;;17.80;70.20;;;;;;4376068;32;20031;-83
2021/06/15 03:09:05;;;;;;;12.65;7.97;;;17.70;70.20;;;;;;4362374;32;20061;-83
2021/06/15 03:11:31;;;;;;;13.55;9.93;;;17.70;70.30;;;;;;4362342;32;20115;-83
2021/06/15 03:14:17;;;;;;;15.88;10.70;;;17.70;70.30;;;;;;4362174;32;20407;-83
2021/06/15 03:16:45;;;;;;;15.10;11.20;;;17.60;70.30;;;;;;4362628;32;20036;-83
2021/06/15 03:19:16;;;;;;;24.27;11.88;;;17.60;70.40;;;;;;4350227;32;20448;-83
2021/06/15 03:21:45;;;;;;;21.48;11.73;;;17.60;70.50;;;;;;4363996;32;20031;-82
2021/06/15 03:24:18;;;;;;;20.35;10.70;;;17.60;70.60;;;;;;4363178;32;20036;-83
2021/06/15 03:26:58;;;;;;;19.87;11.33;;;17.50;70.80;;;;;;4364470;32;20119;-83
2021/06/15 03:29:24;;;;;;;14.70;10.98;;;17.50;70.90;;;;;;4375576;32;20027;-83
2021/06/15 03:31:52;;;;;;;11.60;8.90;;;17.50;70.90;;;;;;4351341;32;20028;-83
2021/06/15 03:34:20;;;;;;;14.63;10.48;;;17.50;70.90;;;;;;4361798;32;20027;-83
2021/06/15 03:36:46;;;;;;;13.13;11.05;;;17.50;70.90;;;;;;4362116;32;20059;-83
2021/06/15 03:39:12;;;;;;;19.17;12.80;;;17.50;71.00;;;;;;4362134;32;20024;-83
2021/06/15 03:41:38;;;;;;;16.23;12.15;;;17.40;70.90;;;;;;4363508;32;20362;-83
2021/06/15 03:44:04;;;;;;;16.77;11.32;;;17.40;70.90;;;;;;4363015;32;20028;-83
2021/06/15 03:46:31;;;;;;;19.92;13.13;;;17.40;70.90;;;;;;4362740;32;20343;-83
2021/06/15 03:48:57;;;;;;;21.87;13.45;;;17.40;71.00;;;;;;4361600;32;20322;-83
2021/06/15 03:51:27;;;;;;;17.95;13.35;;;17.40;71.00;;;;;;4354949;32;20057;-83
2021/06/15 03:54:05;;;;;;;16.70;14.10;;;17.40;71.00;;;;;;4375168;32;20032;-83
2021/06/15 03:56:31;;;;;;;22.05;14.35;;;17.40;71.00;;;;;;4362976;32;20031;-83
2021/06/15 03:58:57;;;;;;;20.00;14.80;;;17.40;71.10;;;;;;4361935;32;20057;-83
2021/06/15 04:01:23;;;;;;;19.45;14.45;;;17.40;71.10;;;;;;4362822;32;20023;-82
2021/06/15 04:03:49;;;;;;;21.25;13.93;;;17.40;71.10;;;;;;4361519;32;20069;-83
2021/06/15 04:06:15;;;;;;;23.05;14.98;;;17.40;71.20;;;;;;4363934;32;20415;-83
2021/06/15 04:08:41;;;;;;;16.75;12.37;;;17.30;71.30;;;;;;4362183;32;20074;-83
2021/06/15 04:11:07;;;;;;;17.85;14.60;;;17.30;71.30;;;;;;4363962;32;20074;-83
2021/06/15 04:13:32;;;;;;;17.50;13.32;;;17.30;71.40;;;;;;4365573;32;20051;-83
2021/06/15 04:15:58;;;;;;;19.73;14.52;;;17.30;71.40;;;;;;4377474;32;20493;-83
2021/06/15 04:18:25;;;;;;;18.25;13.80;;;17.30;71.60;;;;;;4365425;32;20035;-83
2021/06/15 04:20:52;;;;;;;21.62;17.12;;;17.20;71.60;;;;;;4364659;32;20043;-83
2021/06/15 04:23:20;;;;;;;24.05;15.77;;;17.30;71.80;;;;;;4366167;32;20031;-84
2021/06/15 04:25:46;;;;;;;15.77;11.73;;;17.30;71.80;;;;;;4365536;32;20531;-83
2021/06/15 04:28:12;;;;;;;18.62;13.73;;;17.20;71.90;;;;;;4365424;32;20032;-83
2021/06/15 04:30:41;;;;;;;21.23;14.38;;;17.20;72.00;;;;;;4366083;32;20057;-83
2021/06/15 04:33:13;;;;;;;17.00;13.80;;;17.20;72.10;;;;;;4364539;32;20063;-83
2021/06/15 04:35:43;;;;;;;20.15;16.40;;;17.20;72.20;;;;;;4364706;32;20053;-84
2021/06/15 04:38:16;;;;;;;23.55;18.48;;;17.20;72.30;;;;;;4365097;32;20032;-84
2021/06/15 04:40:47;;;;;;;19.00;14.60;;;17.20;72.40;;;;;;4365022;32;20032;-83
2021/06/15 04:43:35;;;;;;;26.25;15.23;;;17.20;72.60;;;;;;4365121;32;20050;-83
2021/06/15 04:46:18;;;;;;;21.60;16.00;;;17.20;72.70;;;;;;4364697;32;20028;-84
2021/06/15 04:48:46;;;;;;;32.22;18.08;;;17.20;72.80;;;;;;4364554;32;20069;-83
2021/06/15 04:51:11;;;;;;;25.40;19.65;;;17.20;73.00;;;;;;4371881;32;20050;-82
2021/06/15 04:53:38;;;;;;;23.10;17.70;;;17.20;73.30;;;;;;4380593;32;20362;-83
2021/06/15 04:56:04;;;;;;;22.17;17.92;;;17.20;73.40;;;;;;4376816;32;20119;-83
2021/06/15 04:58:31;;;;;;;27.48;19.67;;;17.10;73.60;;;;;;4352198;32;20114;-83
2021/06/15 05:01:00;;;;;;;30.83;20.10;;;17.20;73.70;;;;;;4364182;32;20081;-83
2021/06/15 05:03:26;;;;;;;32.28;24.35;;;17.20;73.90;;;;;;4365981;32;20031;-84
2021/06/15 05:05:52;;;;;;;33.25;21.40;;;17.20;74.00;;;;;;4364037;32;20102;-82
2021/06/15 05:08:22;;;;;;;29.27;22.10;;;17.20;74.00;;;;;;4364499;32;20035;-84
2021/06/15 05:10:48;;;;;;;29.63;21.62;;;17.30;74.10;;;;;;4366106;32;20027;-84
2021/06/15 05:13:14;;;;;;;21.50;17.62;;;17.20;74.10;;;;;;4364080;32;20023;-84
2021/06/15 05:15:42;;;;;;;28.33;22.27;;;17.30;74.20;;;;;;4365523;32;20035;-84
2021/06/15 05:18:08;;;;;;;30.15;24.77;;;17.30;74.30;;;;;;4364113;32;20058;-83
2021/06/15 05:20:34;;;;;;;31.65;23.12;;;17.40;74.30;;;;;;4366881;32;20028;-82
2021/06/15 05:23:05;;;;;;;23.33;17.80;;;17.40;74.40;;;;;;4370999;32;20035;-83
2021/06/15 05:25:31;;;;;;;28.10;21.95;;;17.40;74.50;;;;;;4374067;32;20048;-83
2021/06/15 05:27:57;;;;;;;23.10;18.12;;;17.40;74.60;;;;;;4362648;32;20538;-83
2021/06/15 05:30:28;;;;;;;33.85;25.27;;;17.40;74.70;;;;;;4362901;32;20043;-82
2021/06/15 05:32:56;;;;;;;35.80;28.27;;;17.50;74.70;;;;;;4376788;32;20039;-82
2021/06/15 05:35:22;;;;;;;40.12;26.62;;;17.50;74.80;;;;;;4362876;32;20031;-83
2021/06/15 05:37:48;;;;;;;27.45;20.45;;;17.60;74.60;;;;;;4383691;32;20022;-83
2021/06/15 05:40:23;;;;;;;23.20;17.12;;;17.60;74.50;;;;;;4379788;32;20428;-83
2021/06/15 05:42:52;;;;;;;32.90;25.73;;;17.70;74.50;;;;;;4393168;32;20057;-83
2021/06/15 05:45:18;;;;;;;30.35;22.10;;;17.70;74.50;;;;;;4404819;32;20031;-83
2021/06/15 05:47:46;;;;;;;32.13;26.15;;;17.70;74.60;;;;;;4404994;32;20027;-84
2021/06/15 05:50:14;;;;;;;34.40;27.77;;;17.70;74.60;;;;;;4391353;32;20082;-83
2021/06/15 05:52:43;;;;;;;33.75;26.15;;;17.80;74.70;;;;;;4371170;32;20651;-85
2021/06/15 05:55:11;;;;;;;32.17;24.60;;;17.90;74.70;;;;;;4362515;32;20076;-90
2021/06/15 05:57:37;;;;;;;38.28;28.35;;;17.90;74.80;;;;;;4363196;32;20394;-84
2021/06/15 06:00:26;;;;;;;29.23;24.00;;;17.90;74.90;;;;;;4361289;32;20035;-85
2021/06/15 06:04:08;;;;;;;;;;;18.00;75.00;;;;;;3512525;32;100560317;-84
2021/06/15 06:09:18;;;;;;;;;;;18.20;75.30;;;;;;4303723;32;715633;-84
2021/06/15 06:12:35;;;;;;;42.17;29.08;;;18.20;75.50;;;;;;4403520;32;276605;-86
2021/06/15 06:15:28;;;;;;;30.92;23.55;;;18.30;75.60;;;;;;4468727;32;155500;-86
2021/06/15 06:18:06;;;;;;;33.20;27.87;;;18.40;75.60;;;;;;4463226;32;20124;-83
2021/06/15 06:20:36;;;;;;;39.10;28.20;;;18.40;75.60;;;;;;4438049;32;20049;-84
2021/06/15 06:23:38;;;;;;;42.55;32.05;;;18.40;75.60;;;;;;4437630;32;20038;-82
2021/06/15 06:38:03;;;;;;;59.20;36.03;;;18.70;75.80;;;;;;4447849;32;20053;-85
2021/06/15 07:02:49;;;;;;;48.87;35.13;;;19.50;75.50;;;;;;1297105;31;20446;-85
2021/06/15 07:41:46;;;;;;;44.53;35.17;;;20.80;73.60;;;;;;4242941;33;20537;-84
2021/06/15 07:45:25;;;;;;;;;;;;;;;;;;;;;
2021/06/15 07:55:10;;;;;;;46.90;35.70;;;21.20;72.10;;;;;;4222610;33;20115;-84
2021/06/15 07:58:07;;;;;;;47.35;35.08;;;21.40;72.10;;;;;;4196866;34;20062;-83
2021/06/15 08:08:01;;;;;;;47.70;33.30;;;21.80;71.50;;;;;;4191523;34;20092;-85
2021/06/15 08:11:08;;;;;;;;;;;;;;;;;;;;;
2021/06/15 08:25:37;;;;;;;45.95;31.65;;;22.50;69.10;;;;;;4219002;34;20065;-84
2021/06/15 08:29:24;;;;;;;39.92;28.77;;;22.70;68.30;;;;;;4189368;34;20063;-84
2021/06/15 08:42:57;;;;;;;;;;;;;;;;;;;;;
2021/06/15 08:46:03;;;;;;;40.35;27.42;;;23.30;66.70;;;;;;4186498;34;20869;-84
2021/06/15 08:48:32;;;;;;;34.28;27.13;;;23.40;66.60;;;;;;4186868;34;20051;-87
2021/06/15 08:50:58;;;;;;;38.33;29.90;;;23.50;66.60;;;;;;4180988;34;20146;-85
2021/06/15 08:53:42;;;;;;;46.55;30.23;;;23.70;66.20;;;;;;4178339;34;20052;-88
2021/06/15 08:56:59;;;;;;;36.60;28.33;;;23.80;65.50;;;;;;4200194;34;20090;-86
2021/06/15 09:21:42;;;;;;;;;;;;;;;;;;;;;
2021/06/15 09:24:23;;;;;;;34.67;23.67;;;24.80;64.60;;;;;;4284959;33;20088;-84
2021/06/15 09:27:40;;;;;;;;;;;;;;;;;;;;;
2021/06/15 09:30:41;;;;;;;;;;;;;;;;;;;;;
2021/06/15 09:37:29;;;;;;;27.58;20.52;;;25.40;63.80;;;;;;4256646;33;20555;-88
2021/06/15 09:51:45;;;;;;;26.83;18.42;;;25.90;61.10;;;;;;4199069;34;20047;-85
2021/06/15 09:54:52;;;;;;;20.73;15.48;;;26.10;60.90;;;;;;4150432;34;20420;-84
2021/06/15 09:58:16;;;;;;;27.83;17.83;;;26.20;60.40;;;;;;4168623;34;20104;-90
2021/06/15 10:01:50;;;;;;;20.23;14.13;;;26.30;59.60;;;;;;4192868;34;20062;-85
2021/06/15 10:05:04;;;;;;;;;;;;;;;;;;;;;
2021/06/15 10:07:59;;;;;;;;;;;;;;;;;;;;;
2021/06/15 10:11:12;;;;;;;18.80;13.02;;;26.60;59.00;;;;;;4183637;34;20081;-89
2021/06/15 10:22:04;;;;;;;17.40;9.02;;;26.90;58.40;;;;;;4182961;34;20103;-86
2021/06/15 10:29:34;;;;;;;17.40;10.80;;;27.20;58.20;;;;;;4133436;34;20136;-88
2021/06/15 10:32:55;;;;;;;;;;;;;;;;;;;;;
2021/06/15 10:36:20;;;;;;;;;;;;;;;;;;;;;
2021/06/15 10:50:10;;;;;;;17.20;9.82;;;28.00;57.20;;;;;;4131500;34;20087;-88
2021/06/15 11:07:24;;;;;;;11.35;7.03;;;28.30;56.60;;;;;;4714109;27;15504899;-86
2021/06/15 11:11:01;;;;;;;12.32;6.28;;;28.70;54.50;;;;;;5248254;27;20464;-87
2021/06/15 11:14:15;;;;;;;11.32;7.43;;;28.80;54.20;;;;;;5268551;27;20431;-86
2021/06/15 11:35:50;;;;;;;11.98;7.15;;;29.00;53.90;;;;;;4919495;29;20092;-87
2021/06/15 11:52:34;;;;;;;14.13;7.60;;;29.40;53.70;;;;;;4879108;29;20365;-86
2021/06/15 11:55:14;;;;;;;10.40;6.07;;;29.40;53.30;;;;;;4889001;29;20124;-92
2021/06/15 11:58:32;;;;;;;14.38;7.32;;;29.50;53.00;;;;;;4938696;29;20077;-86
2021/06/15 12:05:08;;;;;;;13.63;7.17;;;29.50;53.30;;;;;;4966127;28;20352;-89
2021/06/15 12:08:06;;;;;;;11.20;6.95;;;29.60;54.20;;;;;;4968357;28;20026;-85
2021/06/15 12:32:27;;;;;;;;;;;;;;;;;;;;;
2021/06/15 13:22:26;;;;;;;13.25;5.70;;;29.50;53.90;;;;;;5130352;27;20014;-90
2021/06/15 13:33:07;;;;;;;11.73;7.45;;;29.60;54.70;;;;;;5153163;27;20105;-88
2021/06/15 13:40:23;;;;;;;11.68;6.85;;;29.60;55.10;;;;;;5106575;28;20043;-92
2021/06/15 13:43:54;;;;;;;13.65;6.72;;;29.70;55.40;;;;;;5093785;28;20024;-89
2021/06/15 14:13:49;;;;;;;10.98;6.05;;;29.90;55.20;;;;;;4952913;29;20030;-89
2021/06/15 14:31:50;;;;;;;;;;;;;;;;;;;;;
2021/06/15 14:34:35;;;;;;;11.20;5.68;;;30.30;55.20;;;;;;4972256;28;20399;-87
2021/06/15 15:03:06;;;;;;;10.07;5.15;;;30.60;54.10;;;;;;5071044;28;20016;-85
2021/06/15 15:09:32;;;;;;;10.43;5.25;;;30.40;54.20;;;;;;4991605;28;20022;-84
2021/06/15 15:12:40;;;;;;;13.55;5.65;;;30.30;54.50;;;;;;4975842;28;20070;-85
2021/06/15 15:15:47;;;;;;;;;;;;;;;;;;;;;
2021/06/15 15:19:08;;;;;;;10.90;5.37;;;30.00;54.10;;;;;;5010407;28;20040;-85
2021/06/15 15:22:26;;;;;;;12.13;4.53;;;29.90;53.90;;;;;;4938826;29;20427;-85
2021/06/15 15:26:19;;;;;;;7.70;4.97;;;29.90;53.90;;;;;;5001625;28;20060;-85
2021/06/15 15:28:19;;;;;;;8.73;5.50;;;29.80;53.90;;;;;;5008978;28;20092;-87
2021/06/15 15:30:47;;;;;;;12.63;5.00;;;29.80;53.80;;;;;;5042490;28;20354;-87
2021/06/15 15:34:00;;;;;;;10.00;5.72;;;29.80;53.90;;;;;;5074898;28;20025;-84
2021/06/15 15:36:43;;;;;;;10.32;4.43;;;29.70;54.10;;;;;;5075824;28;20027;-84
2021/06/15 15:39:45;;;;;;;9.60;4.60;;;29.60;54.20;;;;;;5075941;28;20016;-85
2021/06/15 15:42:35;;;;;;;8.77;4.80;;;29.70;54.80;;;;;;5115144;28;20359;-85
2021/06/15 15:45:17;;;;;;;8.32;4.87;;;29.70;54.60;;;;;;5115728;28;20406;-85
2021/06/15 15:48:17;;;;;;;;;;;;;;;;;;;;;
2021/06/15 15:55:33;;;;;;;11.63;4.40;;;29.60;54.20;;;;;;5152268;27;20086;-86
2021/06/15 15:58:29;;;;;;;7.68;4.65;;;29.60;54.00;;;;;;5064719;28;20013;-87
2021/06/15 16:00:59;;;;;;;10.18;4.70;;;29.60;54.10;;;;;;5050135;28;20061;-84
2021/06/15 16:03:35;;;;;;;10.40;4.97;;;29.60;54.10;;;;;;5050267;28;20037;-84
2021/06/15 16:07:24;;;;;;;;;;;;;;;;;;;;;
2021/06/15 16:14:02;;;;;;;9.45;5.03;;;29.50;54.80;;;;;;5030442;28;20425;-86
2021/06/15 16:19:38;;;;;;;8.45;4.72;;;29.40;54.90;;;;;;4999128;28;20030;-84
2021/06/15 16:22:20;;;;;;;14.80;5.10;;;29.30;54.90;;;;;;5030166;28;20065;-84
2021/06/15 16:25:01;;;;;;;10.25;4.53;;;29.20;54.90;;;;;;5015798;28;20032;-84
2021/06/15 16:27:43;;;;;;;10.52;4.53;;;29.20;55.20;;;;;;5056662;28;20452;-86
2021/06/15 16:30:26;;;;;;;7.95;4.50;;;29.10;55.30;;;;;;5074658;28;20028;-86
2021/06/15 16:32:53;;;;;;;8.60;4.55;;;29.00;55.10;;;;;;5058412;28;20370;-85
2021/06/15 16:35:50;;;;;;;10.35;4.28;;;29.00;55.20;;;;;;5002948;28;20017;-84
2021/06/15 16:38:20;;;;;;;8.10;4.37;;;28.90;55.30;;;;;;5014310;28;20025;-83
2021/06/15 16:40:47;;;;;;;12.15;4.80;;;28.90;55.60;;;;;;5014689;28;20022;-81
2021/06/15 16:43:16;;;;;;;10.55;4.50;;;28.80;55.50;;;;;;5014314;28;20082;-85
2021/06/15 16:45:43;;;;;;;10.00;4.22;;;28.80;55.40;;;;;;5014995;28;20048;-83
2021/06/15 16:48:13;;;;;;;6.75;4.28;;;28.80;55.30;;;;;;5013956;28;20040;-85
2021/06/15 16:50:58;;;;;;;;;;;;;;;;;;;;;
2021/06/15 16:54:20;;;;;;;;;;;;;;;;;;;;;
2021/06/15 16:57:10;;;;;;;10.30;4.20;;;28.70;55.50;;;;;;5055337;28;20342;-85
2021/06/15 16:59:58;;;;;;;8.68;4.50;;;28.70;55.80;;;;;;5070321;28;20025;-83
2021/06/15 17:03:06;;;;;;;;;;;;;;;;;;;;;
2021/06/15 17:13:26;;;;;;;7.82;4.32;;;28.40;56.50;;;;;;5031503;28;20547;-85
2021/06/15 17:15:57;;;;;;;7.62;4.35;;;28.30;56.60;;;;;;5010709;28;20040;-88
2021/06/15 17:18:54;;;;;;;13.30;4.68;;;28.20;56.60;;;;;;4985975;28;20051;-88
2021/06/15 17:21:36;;;;;;;9.20;4.62;;;28.10;56.80;;;;;;5051599;28;20029;-86
2021/06/15 17:24:17;;;;;;;;;;;;;;;;;;;;;
2021/06/15 17:27:26;;;;;;;8.90;4.55;;;28.00;57.10;;;;;;5011718;28;20018;-85
2021/06/15 17:30:19;;;;;;;7.70;4.30;;;27.90;57.00;;;;;;5011357;28;20092;-86
2021/06/15 17:33:13;;;;;;;10.65;4.57;;;27.90;57.00;;;;;;4996954;28;20419;-91
2021/06/15 17:35:52;;;;;;;9.88;4.12;;;27.80;57.20;;;;;;4981917;28;20026;-88
2021/06/15 17:38:40;;;;;;;7.65;4.15;;;27.80;57.20;;;;;;4999818;28;20061;-81
2021/06/15 17:41:21;;;;;;;5.80;3.78;;;27.80;57.30;;;;;;5012371;28;20475;-82
2021/06/15 17:44:02;;;;;;;11.93;4.55;;;27.70;57.30;;;;;;5002189;28;20092;-80
2021/06/15 17:46:29;;;;;;;8.70;4.40;;;27.70;57.50;;;;;;5054147;27;20151;-79
2021/06/15 17:48:56;;;;;;;6.28;4.65;;;27.60;57.70;;;;;;5135407;27;20046;-79
2021/06/15 17:51:23;;;;;;;10.90;4.70;;;27.60;57.70;;;;;;5119216;27;20074;-80
2021/06/15 17:53:50;;;;;;;9.93;5.18;;;27.50;57.60;;;;;;5136048;27;20411;-80
2021/06/15 17:56:17;;;;;;;9.98;4.65;;;27.50;57.70;;;;;;5153422;27;20187;-80
2021/06/15 17:58:48;;;;;;;7.05;4.43;;;27.40;57.80;;;;;;5138145;27;20119;-80
2021/06/15 18:01:16;;;;;;;7.22;4.65;;;27.40;57.80;;;;;;5151885;27;20052;-81
2021/06/15 18:03:44;;;;;;;11.18;4.53;;;27.40;57.80;;;;;;5152762;27;20149;-80
2021/06/15 18:06:16;;;;;;;8.90;4.82;;;27.30;57.90;;;;;;5135323;27;20053;-81
2021/06/15 18:08:48;;;;;;;12.45;4.60;;;27.30;58.10;;;;;;5152595;27;20066;-80
2021/06/15 18:11:19;;;;;;;10.13;4.82;;;27.30;58.30;;;;;;5120953;27;20054;-80
2021/06/15 18:13:46;;;;;;;6.55;3.62;;;27.30;58.60;;;;;;5152821;27;20028;-83
2021/06/15 18:16:13;;;;;;;7.37;4.60;;;27.20;58.70;;;;;;5153813;27;20035;-80
2021/06/15 18:18:40;;;;;;;10.20;4.57;;;27.20;58.90;;;;;;5152528;27;20106;-79
2021/06/15 18:21:08;;;;;;;9.20;4.60;;;27.20;59.00;;;;;;5152464;27;20070;-81
2021/06/15 18:23:35;;;;;;;7.70;5.00;;;27.10;59.20;;;;;;5152544;27;20047;-81
2021/06/15 18:26:07;;;;;;;8.43;4.43;;;27.10;59.30;;;;;;5153212;27;20027;-84
2021/06/15 18:28:39;;;;;;;10.43;4.85;;;27.10;59.40;;;;;;5152308;27;20285;-83
2021/06/15 18:31:06;;;;;;;7.35;4.50;;;27.00;59.50;;;;;;5154530;27;20054;-83
2021/06/15 18:33:33;;;;;;;10.05;4.80;;;27.00;59.40;;;;;;5135916;27;20043;-78
2021/06/15 18:36:00;;;;;;;8.68;5.45;;;26.90;59.50;;;;;;5135731;27;20137;-83
2021/06/15 18:38:27;;;;;;;11.20;4.80;;;26.90;59.70;;;;;;5137236;27;20042;-79
2021/06/15 18:40:54;;;;;;;11.40;4.00;;;26.90;59.90;;;;;;5152759;27;20419;-80
2021/06/15 18:43:21;;;;;;;9.77;4.70;;;26.90;60.40;;;;;;5137228;27;20039;-81
2021/06/15 18:45:48;;;;;;;12.37;4.68;;;26.80;60.90;;;;;;5135475;27;20047;-79
2021/06/15 18:48:15;;;;;;;7.68;3.90;;;26.80;61.40;;;;;;5135934;27;20138;-82
2021/06/15 18:50:43;;;;;;;8.07;4.57;;;26.80;61.80;;;;;;5135364;27;20078;-80
2021/06/15 18:53:10;;;;;;;8.45;4.60;;;26.70;62.10;;;;;;5135391;27;20392;-80
2021/06/15 18:55:37;;;;;;;8.10;3.97;;;26.60;62.40;;;;;;5136975;27;20067;-80
2021/06/15 18:58:04;;;;;;;11.05;4.10;;;26.60;62.70;;;;;;5152609;27;20411;-81
2021/06/15 19:00:31;;;;;;;6.05;3.92;;;26.60;63.10;;;;;;5135018;27;20521;-83
2021/06/15 19:02:58;;;;;;;7.68;4.47;;;26.60;63.50;;;;;;5152333;27;20024;-82
2021/06/15 19:05:26;;;;;;;9.43;4.40;;;26.50;63.70;;;;;;5135228;27;20078;-83
2021/06/15 19:07:53;;;;;;;7.93;5.05;;;26.40;63.60;;;;;;5152359;27;20098;-81
2021/06/15 19:10:20;;;;;;;6.45;4.32;;;26.40;63.60;;;;;;5137122;27;20121;-83
2021/06/15 19:12:48;;;;;;;14.32;4.57;;;26.30;63.60;;;;;;5152188;27;20530;-81
2021/06/15 19:15:15;;;;;;;10.65;4.30;;;26.30;63.60;;;;;;5135248;27;20031;-79
2021/06/15 19:17:42;;;;;;;10.88;4.70;;;26.20;63.80;;;;;;5151781;27;20086;-81
2021/06/15 19:20:11;;;;;;;10.90;5.00;;;26.10;63.90;;;;;;5152389;27;20075;-81
2021/06/15 19:22:39;;;;;;;8.95;4.55;;;26.00;64.10;;;;;;5151842;27;20039;-81
2021/06/15 19:25:06;;;;;;;8.25;4.47;;;25.90;64.30;;;;;;5161200;27;20026;-80
2021/06/15 19:27:34;;;;;;;9.23;4.45;;;25.90;64.50;;;;;;5200472;27;20015;-79
2021/06/15 19:30:01;;;;;;;12.63;4.70;;;25.90;64.60;;;;;;5199207;27;20058;-78
2021/06/15 19:32:28;;;;;;;6.95;4.50;;;25.80;64.80;;;;;;5198532;27;20049;-79
2021/06/15 19:34:55;;;;;;;7.20;4.03;;;25.70;64.80;;;;;;5177256;27;20030;-79
2021/06/15 19:37:22;;;;;;;6.55;4.50;;;25.60;64.90;;;;;;5179278;27;20105;-79
2021/06/15 19:39:49;;;;;;;7.70;4.25;;;25.60;64.90;;;;;;5216820;27;20069;-79
2021/06/15 19:42:16;;;;;;;10.20;4.30;;;25.50;64.90;;;;;;5179554;27;20081;-79
2021/06/15 19:44:43;;;;;;;7.72;4.28;;;25.40;64.90;;;;;;5197953;27;20018;-78
2021/06/15 19:47:10;;;;;;;8.68;4.20;;;25.40;64.90;;;;;;5195930;27;20050;-79
2021/06/15 19:49:38;;;;;;;7.80;4.15;;;25.40;65.00;;;;;;5219159;27;20411;-79
2021/06/15 19:52:10;;;;;;;10.85;4.50;;;25.30;64.90;;;;;;5198910;27;20066;-82
2021/06/15 19:54:40;;;;;;;7.23;4.50;;;25.10;64.90;;;;;;5178183;27;20070;-79
2021/06/15 19:57:07;;;;;;;7.05;4.45;;;25.10;64.80;;;;;;5212355;27;20027;-79
2021/06/15 19:59:34;;;;;;;6.37;4.00;;;24.90;64.80;;;;;;5199837;27;20030;-79
2021/06/15 20:02:02;;;;;;;11.38;4.93;;;24.90;64.90;;;;;;5179939;27;20112;-79
2021/06/15 20:04:29;;;;;;;9.48;5.72;;;24.80;65.10;;;;;;5183101;27;20338;-78
2021/06/15 20:06:57;;;;;;;11.00;5.62;;;24.80;65.20;;;;;;5197672;27;20075;-79
2021/06/15 20:09:24;;;;;;;10.40;5.78;;;24.70;65.30;;;;;;5199096;27;20038;-77
2021/06/15 20:11:51;;;;;;;9.23;5.43;;;24.60;65.30;;;;;;5181222;27;20054;-78
2021/06/15 20:14:18;;;;;;;7.43;4.50;;;24.50;65.40;;;;;;5199245;27;20034;-79
2021/06/15 20:16:45;;;;;;;6.80;4.65;;;24.40;65.40;;;;;;5197196;27;20031;-77
2021/06/15 20:19:12;;;;;;;6.70;4.05;;;24.30;65.50;;;;;;5180661;27;20058;-81
2021/06/15 20:21:39;;;;;;;6.82;3.50;;;24.30;65.50;;;;;;5197656;27;20453;-81
2021/06/15 20:24:06;;;;;;;9.18;3.85;;;24.20;65.60;;;;;;5197907;27;20027;-81
2021/06/15 20:26:48;;;;;;;7.68;4.10;;;24.10;65.60;;;;;;5198822;27;20430;-80